Terminal Aerodrome Forecast
Issued by NWS

Home | Current Version | Previous Version | Text Only | Print | Product List | Glossary On
Versions: 1 2 3 4 5 6 7 8 9 10 11 12 13 14
000
FTUS41 KBTV 062320
TAFSLK
TAF
KSLK 062320Z 0700/0724 23012KT P6SM SKC
     FM070800 23007KT P6SM SCT060 BKN120
     FM071000 23009KT P6SM VCSH SCT025 OVC035
     FM071500 23011G18KT 5SM -SN BR OVC025
     FM072100 23012G20KT 3SM -SN BR OVC020=

USA.gov is the U.S. government's official web portal to all federal, state and local government web resources and services.